createdAt,value
2023-01-02T00:00:00.434Z,11.4
2023-01-02T00:05:00.466Z,11.5
2023-01-02T00:10:00.483Z,11.2
2023-01-02T00:15:00.472Z,11.1
2023-01-02T00:20:00.445Z,11.1
2023-01-02T00:25:00.479Z,11.0
2023-01-02T00:30:00.465Z,11.0
2023-01-02T00:35:00.467Z,10.9
2023-01-02T00:40:00.477Z,11.0
2023-01-02T00:45:00.499Z,11.1
2023-01-02T00:50:00.474Z,10.7
2023-01-02T00:55:00.484Z,10.7
2023-01-02T01:00:00.478Z,10.8
2023-01-02T01:05:00.465Z,10.7
2023-01-02T01:10:00.469Z,10.9
2023-01-02T01:15:00.467Z,10.7
2023-01-02T01:20:00.508Z,10.6
2023-01-02T01:25:00.465Z,10.5
2023-01-02T01:30:00.482Z,10.5
2023-01-02T01:35:00.477Z,10.7
2023-01-02T01:40:00.460Z,10.8
2023-01-02T01:45:00.474Z,10.5
2023-01-02T01:50:05.062Z,10.4
2023-01-02T01:55:00.500Z,10.6
2023-01-02T02:00:00.460Z,10.5
2023-01-02T02:05:00.484Z,10.5
2023-01-02T02:10:00.487Z,10.5
2023-01-02T02:15:00.428Z,10.4
2023-01-02T02:20:00.484Z,10.4
2023-01-02T02:25:00.480Z,10.5
2023-01-02T02:30:00.498Z,10.4
2023-01-02T02:35:00.460Z,10.4
2023-01-02T02:40:00.448Z,10.2
2023-01-02T02:45:00.476Z,10.3
2023-01-02T02:50:00.499Z,10.4
2023-01-02T02:55:00.464Z,10.4
2023-01-02T03:00:00.450Z,10.5
2023-01-02T03:05:00.480Z,10.5
2023-01-02T03:10:00.462Z,10.5
2023-01-02T03:15:00.477Z,10.7
2023-01-02T03:20:00.430Z,10.8
2023-01-02T03:25:00.472Z,10.6
2023-01-02T03:30:00.442Z,10.6
2023-01-02T03:35:00.478Z,10.7
2023-01-02T03:40:00.475Z,10.7
2023-01-02T03:45:00.481Z,10.8
2023-01-02T03:50:00.477Z,11.0
2023-01-02T03:55:00.463Z,11.2
2023-01-02T04:00:00.500Z,11.5
2023-01-02T04:05:00.470Z,11.8
2023-01-02T04:10:00.466Z,12.0
2023-01-02T04:15:00.486Z,12.2
2023-01-02T04:20:00.440Z,12.3
2023-01-02T04:25:00.462Z,12.4
2023-01-02T04:30:00.458Z,12.4
2023-01-02T04:35:00.480Z,12.5
2023-01-02T04:40:00.467Z,12.5
2023-01-02T04:45:00.459Z,12.6
2023-01-02T04:50:00.474Z,12.6
2023-01-02T04:55:00.434Z,12.6
2023-01-02T05:00:00.472Z,12.7
2023-01-02T05:05:00.478Z,12.7
2023-01-02T05:10:00.478Z,12.7
2023-01-02T05:15:00.472Z,12.6
2023-01-02T05:20:00.476Z,12.7
2023-01-02T05:25:00.523Z,12.6
2023-01-02T05:30:00.489Z,12.5
2023-01-02T05:35:00.456Z,12.5
2023-01-02T05:40:00.486Z,12.6
2023-01-02T05:45:00.475Z,12.5
2023-01-02T05:50:00.480Z,12.5
2023-01-02T05:55:00.485Z,12.4
2023-01-02T06:00:00.480Z,12.5
2023-01-02T06:05:00.484Z,12.4
2023-01-02T06:10:00.497Z,12.4
2023-01-02T06:15:00.447Z,12.4
2023-01-02T06:20:00.646Z,12.4
2023-01-02T06:25:00.449Z,12.4
2023-01-02T06:30:00.497Z,12.3
2023-01-02T06:35:00.471Z,12.3
2023-01-02T06:40:00.504Z,12.4
2023-01-02T06:45:00.434Z,12.4
2023-01-02T06:50:00.473Z,12.5
2023-01-02T06:55:00.478Z,12.5
2023-01-02T07:00:00.445Z,12.4
2023-01-02T07:05:00.473Z,12.4
2023-01-02T07:10:00.444Z,12.6
2023-01-02T07:15:00.463Z,12.5
2023-01-02T07:20:02.153Z,12.5
2023-01-02T07:25:00.473Z,12.5
2023-01-02T07:30:00.464Z,12.5
2023-01-02T07:35:00.620Z,12.5
2023-01-02T07:40:00.448Z,12.6
2023-01-02T07:45:00.473Z,12.6
2023-01-02T07:50:00.481Z,12.6
2023-01-02T07:55:00.438Z,12.6
2023-01-02T08:00:00.548Z,12.7
2023-01-02T08:05:00.635Z,12.7
2023-01-02T08:10:00.467Z,12.7
2023-01-02T08:15:00.472Z,12.7
2023-01-02T08:20:07.036Z,12.7
2023-01-02T08:25:00.446Z,12.8
2023-01-02T08:30:00.499Z,12.8
2023-01-02T08:35:00.640Z,12.8
2023-01-02T08:40:00.485Z,12.8
2023-01-02T08:45:00.445Z,12.8
2023-01-02T08:50:00.502Z,12.8
2023-01-02T08:55:00.440Z,12.8
2023-01-02T09:00:00.491Z,12.8
2023-01-02T09:05:00.467Z,12.8
2023-01-02T09:10:00.481Z,12.8
2023-01-02T09:15:00.435Z,12.8
2023-01-02T09:20:00.479Z,12.8
2023-01-02T09:25:00.460Z,12.9
2023-01-02T09:30:00.484Z,12.9
2023-01-02T09:35:00.441Z,13.0
2023-01-02T09:40:00.540Z,13.0
2023-01-02T09:45:04.655Z,13.0
2023-01-02T09:50:00.476Z,13.0
2023-01-02T09:55:00.481Z,13.0
2023-01-02T10:00:00.476Z,13.1
2023-01-02T10:05:00.432Z,13.1
2023-01-02T10:10:00.479Z,13.1
2023-01-02T10:15:00.426Z,13.2
2023-01-02T10:20:00.455Z,13.1
2023-01-02T10:25:00.514Z,13.2
2023-01-02T10:30:00.654Z,13.2
2023-01-02T10:35:00.453Z,13.2
2023-01-02T10:40:00.471Z,13.2
2023-01-02T10:45:00.437Z,13.1
2023-01-02T10:50:00.475Z,13.1
2023-01-02T10:55:00.780Z,13.1
2023-01-02T11:00:00.529Z,13.0
2023-01-02T11:05:00.482Z,13.0
2023-01-02T11:10:00.441Z,12.9
2023-01-02T11:15:00.498Z,12.9
2023-01-02T11:20:00.436Z,12.9
2023-01-02T11:25:01.303Z,12.7
2023-01-02T11:30:00.525Z,12.3
2023-01-02T11:35:00.464Z,12.1
2023-01-02T11:40:00.448Z,11.9
2023-01-02T11:45:00.504Z,11.4
2023-01-02T11:50:00.464Z,11.2
2023-01-02T11:55:00.469Z,10.8
2023-01-02T12:00:00.475Z,10.7
2023-01-02T12:05:00.443Z,10.4
2023-01-02T12:10:00.495Z,10.3
2023-01-02T12:15:00.544Z,10.3
2023-01-02T12:20:05.165Z,10.4
2023-01-02T12:25:00.442Z,10.3
2023-01-02T12:30:00.518Z,10.2
2023-01-02T12:35:00.435Z,10.2
2023-01-02T12:40:00.483Z,10.0
2023-01-02T12:45:00.498Z,10.1
2023-01-02T12:50:00.485Z,9.9
2023-01-02T12:55:00.435Z,9.9
2023-01-02T13:00:00.523Z,9.8
2023-01-02T13:05:00.497Z,9.6
2023-01-02T13:10:00.443Z,9.4
2023-01-02T13:15:00.471Z,9.4
2023-01-02T13:20:00.471Z,9.6
2023-01-02T13:25:00.492Z,9.3
2023-01-02T13:30:00.432Z,9.4
2023-01-02T13:35:00.476Z,9.4
2023-01-02T13:40:00.491Z,9.8
2023-01-02T13:45:00.446Z,9.2
2023-01-02T13:50:00.511Z,9.3
2023-01-02T13:55:00.459Z,9.3
2023-01-02T14:00:00.466Z,9.4
2023-01-02T14:05:00.526Z,9.4
2023-01-02T14:10:00.497Z,9.2
2023-01-02T14:15:00.436Z,9.4
2023-01-02T14:20:00.500Z,9.1
2023-01-02T14:25:00.467Z,9.3
2023-01-02T14:30:00.433Z,9.2
2023-01-02T14:35:00.467Z,9.1
2023-01-02T14:40:00.440Z,9.2
2023-01-02T14:45:00.463Z,8.9
2023-01-02T14:50:00.461Z,8.9
2023-01-02T14:55:00.503Z,9.0
2023-01-02T15:00:00.446Z,9.1
2023-01-02T15:05:00.484Z,9.2
2023-01-02T15:10:00.504Z,9.1
2023-01-02T15:15:00.464Z,9.1
2023-01-02T15:20:00.457Z,9.2
2023-01-02T15:25:00.464Z,9.1
2023-01-02T15:30:00.461Z,9.2
2023-01-02T15:35:00.438Z,9.1
2023-01-02T15:40:00.466Z,9.1
2023-01-02T15:45:00.472Z,9.2
2023-01-02T15:50:00.473Z,9.2
2023-01-02T15:55:00.517Z,9.3
2023-01-02T16:00:00.497Z,9.3
2023-01-02T16:05:00.481Z,9.3
2023-01-02T16:10:00.446Z,9.2
2023-01-02T16:15:00.658Z,9.2
2023-01-02T16:20:00.599Z,9.1
2023-01-02T16:25:00.480Z,9.1
2023-01-02T16:30:00.529Z,9.1
2023-01-02T16:35:00.438Z,9.1
2023-01-02T16:40:00.470Z,9.2
2023-01-02T16:45:00.467Z,9.1
2023-01-02T16:50:00.440Z,9.2
2023-01-02T16:55:00.465Z,9.3
2023-01-02T17:00:00.503Z,9.3
2023-01-02T17:05:00.467Z,9.2
2023-01-02T17:10:00.467Z,9.3
2023-01-02T17:15:00.471Z,9.2
2023-01-02T17:20:00.473Z,9.2
2023-01-02T17:25:00.445Z,9.2
2023-01-02T17:30:00.649Z,9.1
2023-01-02T17:35:00.438Z,9.2
2023-01-02T17:40:00.463Z,9.1
2023-01-02T17:45:00.474Z,9.1
2023-01-02T17:50:00.435Z,9.1
2023-01-02T17:55:00.496Z,9.2
2023-01-02T18:00:00.623Z,9.2
2023-01-02T18:05:00.476Z,8.9
2023-01-02T18:10:08.183Z,9.0
2023-01-02T18:15:00.507Z,9.0
2023-01-02T18:20:00.437Z,8.9
2023-01-02T18:25:00.491Z,8.9
2023-01-02T18:30:00.507Z,9.0
2023-01-02T18:35:10.856Z,8.9
2023-01-02T18:40:00.475Z,8.9
2023-01-02T18:45:00.490Z,8.9
2023-01-02T18:50:00.540Z,9.0
2023-01-02T18:55:00.468Z,8.9
2023-01-02T19:00:00.462Z,8.9
2023-01-02T19:05:00.487Z,8.9
2023-01-02T19:10:00.448Z,8.8
2023-01-02T19:15:00.493Z,8.8
2023-01-02T19:20:00.480Z,8.5
2023-01-02T19:25:05.461Z,8.4
2023-01-02T19:30:00.495Z,8.4
2023-01-02T19:35:00.483Z,8.3
2023-01-02T19:40:00.455Z,8.3
2023-01-02T19:45:00.473Z,8.4
2023-01-02T19:50:00.477Z,8.4
2023-01-02T19:55:00.485Z,8.4
2023-01-02T20:00:00.474Z,8.4
2023-01-02T20:05:00.482Z,8.2
2023-01-02T20:10:00.467Z,8.3
2023-01-02T20:15:00.488Z,8.3
2023-01-02T20:20:00.470Z,8.2
2023-01-02T20:25:00.476Z,8.2
2023-01-02T20:30:00.451Z,8.2
2023-01-02T20:35:00.471Z,8.1
2023-01-02T20:40:00.502Z,8.2
2023-01-02T20:45:00.498Z,7.9
2023-01-02T20:50:00.489Z,7.8
2023-01-02T20:55:00.638Z,7.8
2023-01-02T21:00:00.680Z,7.6
2023-01-02T21:05:00.432Z,7.7
2023-01-02T21:10:00.478Z,7.6
2023-01-02T21:15:00.513Z,7.7
2023-01-02T21:20:00.441Z,7.6
2023-01-02T21:25:00.486Z,7.6
2023-01-02T21:30:00.479Z,7.6
2023-01-02T21:35:00.498Z,7.5
2023-01-02T21:40:00.448Z,7.5
2023-01-02T21:45:00.510Z,7.4
2023-01-02T21:50:00.515Z,7.3
2023-01-02T21:55:00.645Z,7.2
2023-01-02T22:00:00.488Z,7.1
2023-01-02T22:05:00.516Z,6.9
2023-01-02T22:10:00.503Z,6.9
2023-01-02T22:15:00.523Z,6.9
2023-01-02T22:20:00.459Z,6.9
2023-01-02T22:25:00.577Z,6.9
2023-01-02T22:30:29.386Z,6.8
2023-01-02T22:35:00.497Z,6.8
2023-01-02T22:40:00.470Z,6.8
2023-01-02T22:45:00.490Z,6.8
2023-01-02T22:50:00.494Z,6.8
2023-01-02T22:55:00.480Z,7.7
2023-01-02T23:00:00.507Z,8.0
2023-01-02T23:05:00.466Z,7.7
2023-01-02T23:10:00.467Z,6.9
2023-01-02T23:15:00.472Z,6.8
2023-01-02T23:20:00.527Z,6.7
2023-01-02T23:25:00.446Z,6.6
2023-01-02T23:30:00.485Z,6.5
2023-01-02T23:35:00.530Z,6.5
2023-01-02T23:40:00.479Z,6.4
2023-01-02T23:45:00.479Z,6.5
2023-01-02T23:50:00.484Z,6.5
2023-01-02T23:55:00.505Z,6.5
